Time;durP1;ratioP1;P1;durP2;ratioP2;P2;SDS_P1;SDS_P2;PMS_P1;PMS_P2;Temp;Humidity;BMP_temperature;BMP_pressure;BME280_temperature;BME280_humidity;BME280_pressure;Samples;Min_cycle;Max_cycle;Signal;HPM_P1;HPM_P2
2022/03/02 00:01:09;;;;;;;31.17;16.35;;;5.80;99.90;;;;;;4909557;29;20741;-83
2022/03/02 00:03:36;;;;;;;32.45;16.25;;;5.80;99.90;;;;;;4910903;29;20040;-83
2022/03/02 00:06:02;;;;;;;34.65;15.63;;;5.80;99.90;;;;;;4903700;29;20103;-83
2022/03/02 00:08:28;;;;;;;32.05;16.80;;;5.70;99.90;;;;;;4903071;29;20077;-83
2022/03/02 00:10:54;;;;;;;33.83;16.13;;;5.80;99.90;;;;;;4912675;29;20047;-83
2022/03/02 00:13:19;;;;;;;34.47;17.08;;;5.70;99.90;;;;;;4903562;29;20044;-83
2022/03/02 00:15:45;;;;;;;30.23;15.40;;;5.70;99.90;;;;;;4901333;29;20040;-83
2022/03/02 00:18:10;;;;;;;37.13;17.15;;;5.70;99.90;;;;;;4901031;29;20127;-83
2022/03/02 00:20:37;;;;;;;34.88;16.33;;;5.70;99.90;;;;;;4901088;29;20094;-83
2022/03/02 00:23:02;;;;;;;29.05;14.82;;;5.70;99.90;;;;;;4907323;29;20036;-83
2022/03/02 00:25:28;;;;;;;36.67;17.83;;;5.70;99.90;;;;;;4910049;29;20063;-83
2022/03/02 00:27:54;;;;;;;34.20;16.13;;;5.70;99.90;;;;;;4908386;29;20036;-83
2022/03/02 00:30:22;;;;;;;38.63;17.60;;;5.60;99.90;;;;;;4910252;29;20051;-83
2022/03/02 00:32:47;;;;;;;31.95;17.20;;;5.70;99.90;;;;;;4909467;29;20047;-83
2022/03/02 00:35:13;;;;;;;31.35;15.80;;;5.60;99.90;;;;;;4908961;29;20044;-83
2022/03/02 00:37:38;;;;;;;30.70;16.27;;;5.60;99.90;;;;;;4891834;29;20048;-83
2022/03/02 00:40:05;;;;;;;32.72;16.10;;;5.60;99.90;;;;;;4911107;29;20052;-83
2022/03/02 00:42:31;;;;;;;33.00;16.92;;;5.60;99.90;;;;;;4908564;29;20055;-83
2022/03/02 00:44:57;;;;;;;40.85;17.52;;;5.60;99.90;;;;;;4909735;29;20040;-83
2022/03/02 00:47:22;;;;;;;35.10;16.77;;;5.60;99.90;;;;;;4907028;29;20041;-83
2022/03/02 00:49:48;;;;;;;32.67;16.50;;;5.60;99.90;;;;;;4908463;29;20128;-83
2022/03/02 00:52:14;;;;;;;34.63;17.27;;;5.60;99.90;;;;;;4907081;29;20044;-83
2022/03/02 00:54:40;;;;;;;32.70;17.02;;;5.60;99.90;;;;;;4924808;29;20047;-83
2022/03/02 00:57:05;;;;;;;29.75;17.75;;;5.60;99.90;;;;;;4910342;29;20037;-82
2022/03/02 00:59:31;;;;;;;36.65;16.83;;;5.50;99.90;;;;;;4911451;29;20108;-82
2022/03/02 01:01:56;;;;;;;34.38;17.23;;;5.60;99.90;;;;;;4909164;29;20076;-82
2022/03/02 01:04:22;;;;;;;38.08;17.83;;;5.50;99.90;;;;;;4892383;29;20044;-82
2022/03/02 01:06:48;;;;;;;35.60;16.52;;;5.50;99.90;;;;;;4900441;29;20051;-82
2022/03/02 01:09:14;;;;;;;36.33;16.90;;;5.50;99.90;;;;;;4900600;29;20044;-82
2022/03/02 01:11:39;;;;;;;34.85;16.92;;;5.40;99.90;;;;;;4900147;29;20044;-82
2022/03/02 01:14:05;;;;;;;34.95;17.77;;;5.40;99.90;;;;;;4900340;29;20051;-82
2022/03/02 01:16:30;;;;;;;35.47;16.83;;;5.40;99.90;;;;;;4900611;29;20479;-82
2022/03/02 01:18:56;;;;;;;39.92;18.00;;;5.40;99.90;;;;;;4900043;29;20131;-82
2022/03/02 01:21:21;;;;;;;35.58;17.80;;;5.40;99.90;;;;;;4899903;29;20102;-82
2022/03/02 01:23:47;;;;;;;34.92;16.92;;;5.40;99.90;;;;;;4884895;29;20048;-82
2022/03/02 01:26:13;;;;;;;34.63;17.08;;;5.30;99.90;;;;;;4898891;29;20044;-82
2022/03/02 01:28:39;;;;;;;37.15;16.42;;;5.30;99.90;;;;;;4898371;29;20406;-82
2022/03/02 01:31:04;;;;;;;42.35;18.55;;;5.30;99.90;;;;;;4898520;29;20040;-82
2022/03/02 01:33:30;;;;;;;38.95;18.10;;;5.30;99.90;;;;;;4898979;29;20095;-82
2022/03/02 01:35:55;;;;;;;32.00;17.20;;;5.30;99.90;;;;;;4899033;29;20055;-82
2022/03/02 01:38:21;;;;;;;37.28;17.20;;;5.30;99.90;;;;;;4898773;29;20051;-82
2022/03/02 01:40:47;;;;;;;38.30;18.98;;;5.30;99.90;;;;;;4898314;29;20044;-82
2022/03/02 01:43:13;;;;;;;36.25;16.83;;;5.30;99.90;;;;;;4898506;29;20044;-82
2022/03/02 01:45:39;;;;;;;34.08;17.50;;;5.30;99.90;;;;;;4914547;29;20486;-82
2022/03/02 01:48:05;;;;;;;33.92;17.75;;;5.30;99.90;;;;;;4898711;29;20123;-82
2022/03/02 01:50:32;;;;;;;35.72;17.35;;;5.30;99.90;;;;;;4914142;29;20044;-82
2022/03/02 01:52:58;;;;;;;38.75;18.20;;;5.30;99.90;;;;;;4898501;29;20131;-82
2022/03/02 01:55:24;;;;;;;33.72;18.17;;;5.30;99.90;;;;;;4914612;29;20071;-82
2022/03/02 01:57:50;;;;;;;38.03;17.23;;;5.30;99.90;;;;;;4914188;29;20044;-82
2022/03/02 02:00:19;;;;;;;35.55;17.05;;;5.20;99.90;;;;;;4898513;29;20040;-82
2022/03/02 02:02:46;;;;;;;38.80;17.20;;;5.20;99.90;;;;;;4898457;29;20381;-82
2022/03/02 02:05:12;;;;;;;36.60;17.83;;;5.20;99.90;;;;;;4922382;29;20040;-82
2022/03/02 02:07:38;;;;;;;40.97;18.48;;;5.20;99.90;;;;;;4905426;29;20051;-82
2022/03/02 02:10:06;;;;;;;39.13;18.17;;;5.10;99.90;;;;;;4904493;29;20099;-82
2022/03/02 02:12:32;;;;;;;33.15;17.05;;;5.10;99.90;;;;;;4906597;29;20044;-82
2022/03/02 02:14:58;;;;;;;40.75;19.08;;;5.10;99.90;;;;;;4903723;29;20048;-82
2022/03/02 02:17:23;;;;;;;36.65;17.45;;;5.10;99.90;;;;;;4919010;29;20403;-82
2022/03/02 02:19:49;;;;;;;34.35;17.65;;;5.10;99.90;;;;;;4904653;29;20056;-82
2022/03/02 02:22:14;;;;;;;37.55;17.42;;;5.00;99.90;;;;;;4903680;29;20048;-82
2022/03/02 02:24:40;;;;;;;34.15;17.52;;;5.00;99.90;;;;;;4903823;29;20044;-82
2022/03/02 02:27:06;;;;;;;37.70;18.67;;;5.00;99.90;;;;;;4907370;29;20044;-82
2022/03/02 02:29:34;;;;;;;37.20;18.23;;;5.00;99.90;;;;;;4906175;29;20036;-82
2022/03/02 02:32:00;;;;;;;44.72;19.90;;;5.00;99.90;;;;;;4907747;29;20635;-82
2022/03/02 02:34:25;;;;;;;38.45;17.25;;;5.00;99.90;;;;;;4899396;29;20130;-82
2022/03/02 02:36:51;;;;;;;36.47;18.20;;;5.00;99.90;;;;;;4899514;29;20188;-82
2022/03/02 02:39:17;;;;;;;38.72;17.05;;;5.00;99.90;;;;;;4899884;29;20040;-82
2022/03/02 02:41:42;;;;;;;39.13;18.40;;;5.00;99.90;;;;;;4902609;29;20199;-82
2022/03/02 02:44:08;;;;;;;38.65;18.77;;;5.00;99.90;;;;;;4887849;29;20044;-82
2022/03/02 02:46:33;;;;;;;44.10;19.60;;;5.00;99.90;;;;;;4903082;29;20080;-82
2022/03/02 02:48:59;;;;;;;43.42;18.38;;;5.00;99.90;;;;;;4902883;29;20564;-82
2022/03/02 02:51:24;;;;;;;38.25;17.88;;;5.00;99.90;;;;;;4902590;29;20500;-82
2022/03/02 02:53:50;;;;;;;39.92;18.42;;;5.00;99.90;;;;;;4902726;29;20487;-82
2022/03/02 02:56:15;;;;;;;34.63;18.35;;;4.90;99.90;;;;;;4902921;29;20079;-82
2022/03/02 02:58:41;;;;;;;40.22;19.10;;;4.90;99.90;;;;;;4902676;29;20044;-82
2022/03/02 03:01:07;;;;;;;41.67;18.48;;;5.00;99.90;;;;;;4902286;29;20096;-82
2022/03/02 03:03:32;;;;;;;42.97;19.20;;;4.90;99.90;;;;;;4902665;29;20411;-82
2022/03/02 03:05:58;;;;;;;41.10;19.83;;;4.90;99.90;;;;;;4902590;29;20048;-82
2022/03/02 03:08:23;;;;;;;38.83;19.13;;;5.00;99.90;;;;;;4902665;29;20492;-83
2022/03/02 03:10:49;;;;;;;34.50;16.67;;;4.90;99.90;;;;;;4903138;29;20533;-83
2022/03/02 03:13:16;;;;;;;37.70;18.92;;;4.90;99.90;;;;;;4909056;29;20044;-83
2022/03/02 03:15:43;;;;;;;42.47;18.15;;;4.90;99.90;;;;;;4915373;29;20048;-83
2022/03/02 03:18:09;;;;;;;38.15;17.73;;;4.90;99.90;;;;;;4913769;29;20044;-83
2022/03/02 03:20:35;;;;;;;42.00;18.60;;;5.00;99.90;;;;;;4913374;29;20127;-83
2022/03/02 03:23:01;;;;;;;33.92;16.70;;;4.90;99.90;;;;;;4911994;29;20131;-83
2022/03/02 03:25:28;;;;;;;40.25;18.48;;;4.90;99.90;;;;;;4928626;29;20389;-83
2022/03/02 03:27:55;;;;;;;38.17;17.95;;;4.90;99.90;;;;;;4911358;29;20111;-82
2022/03/02 03:30:22;;;;;;;40.45;18.27;;;4.90;99.90;;;;;;4907848;29;20123;-83
2022/03/02 03:32:49;;;;;;;42.63;18.67;;;4.90;99.90;;;;;;4907574;29;20127;-84
2022/03/02 03:35:16;;;;;;;40.25;19.80;;;4.90;99.90;;;;;;4924058;29;20047;-83
2022/03/02 03:37:43;;;;;;;42.38;19.30;;;4.90;99.90;;;;;;4909300;29;20086;-83
2022/03/02 03:40:11;;;;;;;41.72;19.30;;;4.80;99.90;;;;;;4907654;29;20106;-84
2022/03/02 03:42:37;;;;;;;39.75;18.60;;;4.80;99.90;;;;;;4910388;29;20036;-83
2022/03/02 03:45:03;;;;;;;43.38;19.52;;;4.80;99.90;;;;;;4909102;29;20058;-83
2022/03/02 03:47:29;;;;;;;42.50;20.23;;;4.80;99.90;;;;;;4908042;29;20085;-82
2022/03/02 03:49:55;;;;;;;39.10;19.60;;;4.80;99.90;;;;;;4902053;29;20511;-83
2022/03/02 03:52:20;;;;;;;36.53;18.13;;;4.70;99.90;;;;;;4900782;29;20052;-83
2022/03/02 03:54:46;;;;;;;40.30;18.83;;;4.80;99.90;;;;;;4903087;29;20316;-83
2022/03/02 03:57:11;;;;;;;39.50;17.73;;;4.70;99.90;;;;;;4901908;29;20480;-83
2022/03/02 03:59:37;;;;;;;41.67;17.52;;;4.70;99.90;;;;;;4900961;29;20126;-83
2022/03/02 04:02:03;;;;;;;42.20;19.98;;;4.70;99.90;;;;;;4901482;29;20066;-83
2022/03/02 04:04:28;;;;;;;41.72;19.88;;;4.70;99.90;;;;;;4886348;29;20476;-83
2022/03/02 04:06:54;;;;;;;46.17;18.83;;;4.70;99.90;;;;;;4901203;29;20036;-83
2022/03/02 04:09:19;;;;;;;41.38;18.85;;;4.70;99.90;;;;;;4901602;29;20452;-83
2022/03/02 04:11:45;;;;;;;40.63;18.15;;;4.70;99.90;;;;;;4900935;29;20621;-83
2022/03/02 04:14:11;;;;;;;38.30;17.38;;;4.70;99.90;;;;;;4901329;29;20036;-83
2022/03/02 04:16:37;;;;;;;39.05;18.65;;;4.70;99.90;;;;;;4900898;29;20051;-83
2022/03/02 04:19:04;;;;;;;44.58;20.50;;;4.60;99.90;;;;;;4900990;29;20051;-83
2022/03/02 04:21:30;;;;;;;39.88;18.60;;;4.60;99.90;;;;;;4901228;29;20127;-82
2022/03/02 04:23:56;;;;;;;42.47;18.83;;;4.60;99.90;;;;;;4901442;29;20400;-83
2022/03/02 04:26:21;;;;;;;41.92;18.98;;;4.70;99.90;;;;;;4900922;29;20040;-83
2022/03/02 04:28:47;;;;;;;40.50;19.02;;;4.60;99.90;;;;;;4901857;29;20048;-83
2022/03/02 04:31:12;;;;;;;39.63;18.55;;;4.60;99.90;;;;;;4887364;29;20055;-83
2022/03/02 04:33:38;;;;;;;38.03;19.77;;;4.60;99.90;;;;;;4908283;29;20048;-83
2022/03/02 04:36:04;;;;;;;42.80;20.27;;;4.60;99.90;;;;;;4908830;29;20046;-83
2022/03/02 04:38:30;;;;;;;41.78;20.05;;;4.60;99.90;;;;;;4908333;29;20112;-83
2022/03/02 04:40:56;;;;;;;42.30;18.83;;;4.60;99.90;;;;;;4906742;29;20048;-83
2022/03/02 04:43:21;;;;;;;44.55;19.83;;;4.50;99.90;;;;;;4907404;29;20044;-83
2022/03/02 04:45:47;;;;;;;44.15;20.45;;;4.50;99.90;;;;;;4892810;29;20048;-82
2022/03/02 04:48:12;;;;;;;41.35;18.85;;;4.50;99.90;;;;;;4909758;29;20133;-83
2022/03/02 04:50:38;;;;;;;42.17;20.50;;;4.50;99.90;;;;;;4906837;29;20059;-83
2022/03/02 04:53:04;;;;;;;40.53;20.08;;;4.50;99.90;;;;;;4910822;29;20048;-83
2022/03/02 04:55:30;;;;;;;41.53;20.30;;;4.40;99.90;;;;;;4907805;29;20126;-83
2022/03/02 04:57:58;;;;;;;40.70;19.05;;;4.40;99.90;;;;;;4900864;29;20470;-83
2022/03/02 05:00:32;;;;;;;42.08;19.17;;;4.40;99.90;;;;;;4900106;29;20040;-83
2022/03/02 05:03:00;;;;;;;41.50;20.35;;;4.40;99.90;;;;;;4899915;29;20529;-83
2022/03/02 05:05:28;;;;;;;39.53;19.40;;;4.30;99.90;;;;;;4900453;29;20040;-83
2022/03/02 05:07:54;;;;;;;47.42;20.65;;;4.30;99.90;;;;;;4900802;29;20075;-83
2022/03/02 05:10:21;;;;;;;43.47;20.75;;;4.30;99.90;;;;;;4899988;29;20040;-83
2022/03/02 05:12:47;;;;;;;42.83;20.25;;;4.20;99.90;;;;;;4915519;29;20126;-83
2022/03/02 05:15:14;;;;;;;45.22;20.63;;;4.20;99.90;;;;;;4910438;29;20055;-84
2022/03/02 05:17:41;;;;;;;47.30;20.17;;;4.20;99.90;;;;;;4922699;29;20419;-82
2022/03/02 05:20:09;;;;;;;45.30;20.45;;;4.20;99.90;;;;;;4924150;29;20048;-83
2022/03/02 05:22:35;;;;;;;44.85;19.95;;;4.20;99.90;;;;;;4903655;29;20538;-82
2022/03/02 05:25:02;;;;;;;46.53;20.80;;;4.20;99.90;;;;;;4900306;29;20036;-83
2022/03/02 05:27:28;;;;;;;41.67;18.90;;;4.10;99.90;;;;;;4900095;29;20048;-83
2022/03/02 05:29:53;;;;;;;46.58;19.52;;;4.10;99.90;;;;;;4899601;29;20123;-84
2022/03/02 05:32:19;;;;;;;41.13;19.60;;;4.10;99.90;;;;;;4900246;29;20072;-83
2022/03/02 05:34:44;;;;;;;48.65;21.23;;;4.10;99.90;;;;;;4910816;29;20088;-83
2022/03/02 05:37:10;;;;;;;41.55;20.30;;;4.10;99.90;;;;;;4902712;29;20062;-87
2022/03/02 05:39:35;;;;;;;48.70;20.05;;;4.10;99.90;;;;;;4897955;29;20043;-87
2022/03/02 05:42:02;;;;;;;43.60;20.73;;;4.10;99.90;;;;;;4897930;29;20048;-87
2022/03/02 05:44:27;;;;;;;45.78;19.67;;;4.10;99.90;;;;;;4913745;29;20065;-87
2022/03/02 05:46:53;;;;;;;41.72;20.20;;;4.20;99.90;;;;;;4897976;29;20044;-87
2022/03/02 05:49:19;;;;;;;48.55;21.67;;;4.20;99.90;;;;;;4897989;29;20039;-85
2022/03/02 05:51:44;;;;;;;49.10;21.27;;;4.10;99.90;;;;;;4897465;29;20040;-86
2022/03/02 05:54:10;;;;;;;42.70;19.48;;;4.10;99.90;;;;;;4897819;29;20040;-88
2022/03/02 05:56:37;;;;;;;45.25;21.58;;;4.10;99.90;;;;;;4898100;29;20403;-87
2022/03/02 05:59:04;;;;;;;48.22;20.40;;;4.10;99.90;;;;;;4897995;29;20044;-86
2022/03/02 06:01:31;;;;;;;48.92;23.17;;;4.10;99.90;;;;;;4897320;29;20043;-86
2022/03/02 06:03:56;;;;;;;46.03;23.30;;;4.10;99.90;;;;;;4897602;29;20146;-86
2022/03/02 06:06:22;;;;;;;46.78;22.77;;;4.00;99.90;;;;;;4897679;29;20036;-85
2022/03/02 06:08:47;;;;;;;103.65;43.28;;;4.10;99.90;;;;;;4897736;29;20063;-86
2022/03/02 06:11:13;;;;;;;42.50;19.60;;;4.00;99.90;;;;;;4897229;29;20140;-86
2022/03/02 06:13:39;;;;;;;44.50;20.80;;;4.00;99.90;;;;;;4897437;29;20044;-86
2022/03/02 06:16:05;;;;;;;44.20;20.70;;;4.00;99.90;;;;;;4900487;29;20050;-87
2022/03/02 06:18:31;;;;;;;50.78;22.40;;;3.90;99.90;;;;;;4901308;29;20051;-87
2022/03/02 06:21:03;;;;;;;51.38;21.38;;;3.90;99.90;;;;;;4901181;29;20044;-87
2022/03/02 06:23:30;;;;;;;45.38;19.63;;;3.90;99.90;;;;;;4901228;29;20044;-87
2022/03/02 06:25:56;;;;;;;48.72;22.70;;;3.90;99.90;;;;;;4901312;29;20040;-87
2022/03/02 06:28:22;;;;;;;52.88;25.83;;;3.90;99.90;;;;;;4916947;29;20044;-87
2022/03/02 06:30:48;;;;;;;44.97;21.10;;;3.90;99.90;;;;;;4910380;29;20120;-87
2022/03/02 06:33:18;;;;;;;46.80;20.85;;;3.90;99.90;;;;;;4901249;29;20445;-87
2022/03/02 06:35:47;;;;;;;55.20;21.88;;;3.80;99.90;;;;;;4907661;29;20087;-87
2022/03/02 06:38:13;;;;;;;50.25;21.75;;;3.80;99.90;;;;;;4904068;29;20559;-87
2022/03/02 06:40:40;;;;;;;42.63;21.58;;;3.90;99.90;;;;;;4896570;29;20032;-87
2022/03/02 06:43:11;;;;;;;45.97;22.65;;;3.90;99.90;;;;;;4912314;29;20052;-86
2022/03/02 06:45:57;;;;;;;51.75;23.23;;;3.80;99.90;;;;;;4900841;29;20124;-86
2022/03/02 06:48:52;;;;;;;48.22;22.08;;;3.90;99.90;;;;;;4893888;29;20032;-86
2022/03/02 06:51:22;;;;;;;45.20;21.27;;;3.90;99.90;;;;;;4913992;29;20621;-86
2022/03/02 06:53:48;;;;;;;61.15;26.08;;;4.00;99.90;;;;;;4901829;29;20040;-87
2022/03/02 06:56:18;;;;;;;56.67;23.65;;;3.90;99.90;;;;;;4901918;29;20407;-86
2022/03/02 06:58:47;;;;;;;52.97;22.50;;;4.00;99.90;;;;;;4886505;29;20464;-86
2022/03/02 07:01:15;;;;;;;47.30;20.85;;;4.00;99.90;;;;;;4914444;29;20047;-88
2022/03/02 07:03:47;;;;;;;41.75;20.05;;;4.00;99.90;;;;;;4904499;29;20387;-87
2022/03/02 07:06:14;;;;;;;45.55;20.05;;;4.10;99.90;;;;;;4920502;29;20731;-87
2022/03/02 07:08:45;;;;;;;52.05;21.80;;;4.10;99.90;;;;;;4920208;29;20044;-87
2022/03/02 07:11:11;;;;;;;48.25;20.85;;;4.10;99.90;;;;;;4919951;29;20048;-88
2022/03/02 07:13:36;;;;;;;40.65;19.50;;;4.10;99.90;;;;;;4920051;29;20075;-87
2022/03/02 07:16:02;;;;;;;46.90;20.27;;;4.30;99.90;;;;;;4920103;29;20086;-87
2022/03/02 07:18:28;;;;;;;44.80;19.23;;;4.20;99.90;;;;;;4920080;29;20139;-87
2022/03/02 07:20:57;;;;;;;41.08;20.58;;;4.30;99.90;;;;;;4913426;29;20147;-88
2022/03/02 07:23:27;;;;;;;38.08;18.42;;;4.30;99.90;;;;;;4901065;29;20100;-88
2022/03/02 07:25:58;;;;;;;39.13;19.70;;;4.40;99.90;;;;;;4900534;29;20036;-87
2022/03/02 07:28:26;;;;;;;44.47;21.65;;;4.40;99.90;;;;;;4900340;29;20119;-87
2022/03/02 07:30:53;;;;;;;50.85;24.65;;;4.50;99.90;;;;;;4900852;29;20071;-86
2022/03/02 07:33:22;;;;;;;48.22;19.38;;;4.50;99.90;;;;;;4901150;29;20075;-86
2022/03/02 07:35:56;;;;;;;45.15;20.52;;;4.50;99.90;;;;;;4900979;29;20118;-86
2022/03/02 07:38:22;;;;;;;52.53;21.10;;;4.50;99.90;;;;;;4885376;29;20044;-86
2022/03/02 07:40:49;;;;;;;43.25;18.90;;;4.60;99.90;;;;;;4900754;29;20040;-85
2022/03/02 07:43:15;;;;;;;41.67;19.25;;;4.60;99.90;;;;;;4916865;29;20051;-85
2022/03/02 07:45:41;;;;;;;43.58;19.55;;;4.60;99.90;;;;;;4885596;29;20212;-85
2022/03/02 07:48:06;;;;;;;42.88;19.75;;;4.50;99.90;;;;;;4918614;29;20095;-85
2022/03/02 07:50:33;;;;;;;42.67;18.73;;;4.50;99.90;;;;;;4902506;29;20040;-85
2022/03/02 07:53:01;;;;;;;37.70;18.45;;;4.50;99.90;;;;;;4884995;29;20052;-85
2022/03/02 07:55:28;;;;;;;40.13;18.83;;;4.50;99.90;;;;;;4899831;29;20055;-86
2022/03/02 07:57:55;;;;;;;44.70;20.73;;;4.50;99.90;;;;;;4900287;29;20054;-86
2022/03/02 08:00:22;;;;;;;41.38;19.92;;;4.60;99.90;;;;;;4915969;29;20052;-85
2022/03/02 08:02:48;;;;;;;44.28;19.20;;;4.50;99.90;;;;;;4915894;29;20044;-85
2022/03/02 08:05:14;;;;;;;38.92;18.13;;;4.60;99.90;;;;;;4884583;29;20576;-87
2022/03/02 08:07:40;;;;;;;39.08;18.55;;;4.50;99.90;;;;;;4914191;29;20039;-86
2022/03/02 08:10:06;;;;;;;37.83;18.30;;;4.50;99.90;;;;;;4915017;29;20040;-85
2022/03/02 08:12:32;;;;;;;40.63;19.73;;;4.50;99.90;;;;;;4914685;29;20110;-86
2022/03/02 08:14:58;;;;;;;51.45;19.83;;;4.50;99.90;;;;;;4910635;29;20414;-85
2022/03/02 08:17:23;;;;;;;45.67;19.15;;;4.60;99.90;;;;;;4911164;29;20058;-85
2022/03/02 08:19:49;;;;;;;37.72;18.23;;;4.70;99.90;;;;;;4919481;29;20053;-86
2022/03/02 08:22:18;;;;;;;40.03;19.10;;;4.70;99.90;;;;;;4917468;29;20044;-85
2022/03/02 08:25:07;;;;;;;39.85;18.85;;;4.80;99.90;;;;;;4918393;29;20071;-86
2022/03/02 08:27:33;;;;;;;43.55;19.00;;;4.80;99.90;;;;;;4901877;29;20860;-86
2022/03/02 08:30:01;;;;;;;38.08;18.40;;;4.80;99.90;;;;;;4915235;29;20483;-85
2022/03/02 08:32:31;;;;;;;37.22;17.90;;;4.80;99.90;;;;;;4914023;29;20047;-85
2022/03/02 08:34:57;;;;;;;39.80;18.77;;;4.80;99.90;;;;;;4919077;29;20052;-85
2022/03/02 08:37:24;;;;;;;41.33;19.50;;;4.80;99.90;;;;;;4915388;29;20064;-86
2022/03/02 08:39:49;;;;;;;45.22;19.63;;;4.70;99.90;;;;;;4913990;29;20491;-85
2022/03/02 08:42:15;;;;;;;39.28;19.02;;;4.70;99.90;;;;;;4898659;29;20044;-85
2022/03/02 08:44:41;;;;;;;40.30;18.10;;;4.90;99.90;;;;;;4915978;29;20047;-85
2022/03/02 08:47:07;;;;;;;40.67;18.98;;;5.00;99.90;;;;;;4917336;29;20044;-84
2022/03/02 08:49:32;;;;;;;40.78;17.90;;;5.00;99.90;;;;;;4917186;29;20498;-85
2022/03/02 08:51:58;;;;;;;41.58;18.48;;;5.00;99.90;;;;;;4907094;29;20062;-85
2022/03/02 08:54:26;;;;;;;42.75;18.83;;;5.00;99.90;;;;;;4882996;29;20082;-85
2022/03/02 08:56:53;;;;;;;37.97;16.98;;;5.10;99.90;;;;;;4908231;29;20109;-85
2022/03/02 08:59:20;;;;;;;40.08;17.52;;;5.20;99.90;;;;;;4917500;29;20107;-84
2022/03/02 09:01:51;;;;;;;38.65;18.85;;;5.20;99.90;;;;;;4893023;29;20087;-88
2022/03/02 09:04:17;;;;;;;31.23;16.33;;;5.30;99.90;;;;;;4898684;29;20036;-88
2022/03/02 09:06:45;;;;;;;34.03;17.40;;;5.30;99.90;;;;;;4927529;29;20039;-88
2022/03/02 09:09:10;;;;;;;39.10;17.83;;;5.40;99.90;;;;;;4917883;29;20039;-88
2022/03/02 09:11:38;;;;;;;70.72;40.25;;;5.50;99.90;;;;;;4917895;29;20047;-87
2022/03/02 09:14:04;;;;;;;69.65;31.50;;;5.50;99.90;;;;;;4918083;29;20048;-88
2022/03/02 09:16:30;;;;;;;40.53;19.45;;;5.60;99.90;;;;;;4917695;29;20122;-89
2022/03/02 09:18:55;;;;;;;47.83;21.95;;;5.70;99.90;;;;;;4902448;29;20048;-88
2022/03/02 09:21:22;;;;;;;43.63;20.08;;;5.80;99.90;;;;;;4901476;29;20523;-88
2022/03/02 09:23:48;;;;;;;39.42;18.23;;;5.80;99.90;;;;;;4901755;29;20127;-88
2022/03/02 09:26:17;;;;;;;37.83;18.38;;;6.00;99.90;;;;;;4917374;29;20071;-88
2022/03/02 09:28:45;;;;;;;36.03;16.88;;;6.60;99.90;;;;;;4901736;29;20046;-88
2022/03/02 09:31:14;;;;;;;38.47;16.90;;;7.20;99.90;;;;;;4917240;29;20042;-88
2022/03/02 09:33:40;;;;;;;33.05;17.00;;;7.80;99.90;;;;;;4917308;29;20052;-88
2022/03/02 09:36:09;;;;;;;34.45;16.35;;;8.30;99.90;;;;;;4898717;29;20036;-88
2022/03/02 09:38:37;;;;;;;29.20;14.70;;;8.20;99.90;;;;;;4916919;29;20457;-89
2022/03/02 09:41:22;;;;;;;26.98;12.60;;;8.30;99.90;;;;;;4901581;29;20039;-89
2022/03/02 09:43:50;;;;;;;22.70;12.85;;;8.50;99.90;;;;;;4892572;29;20399;-89
2022/03/02 09:46:23;;;;;;;30.63;14.00;;;8.90;99.90;;;;;;4892229;29;20032;-86
2022/03/02 09:48:50;;;;;;;27.70;13.38;;;9.00;99.90;;;;;;4918164;29;20047;-86
2022/03/02 09:51:26;;;;;;;23.63;11.93;;;9.20;99.90;;;;;;4936496;29;20044;-85
2022/03/02 09:53:57;;;;;;;31.20;13.48;;;9.70;99.90;;;;;;4917779;29;20487;-86
2022/03/02 09:56:23;;;;;;;23.58;11.93;;;10.10;99.90;;;;;;4923733;29;20106;-87
2022/03/02 09:58:51;;;;;;;25.58;13.00;;;10.50;99.90;;;;;;4939552;29;20537;-86
2022/03/02 10:01:22;;;;;;;29.20;13.15;;;10.90;99.90;;;;;;4923207;29;20050;-86
2022/03/02 10:03:50;;;;;;;24.40;12.45;;;11.20;99.90;;;;;;4904576;29;20040;-87
2022/03/02 10:06:17;;;;;;;23.63;12.35;;;11.50;99.90;;;;;;4899500;29;20046;-87
2022/03/02 10:08:51;;;;;;;23.50;12.65;;;11.80;99.90;;;;;;4923496;29;20123;-87
2022/03/02 10:11:26;;;;;;;22.10;11.63;;;12.20;99.90;;;;;;4909492;29;20043;-86
2022/03/02 10:13:55;;;;;;;24.25;12.57;;;12.50;99.90;;;;;;4934929;29;20111;-87
2022/03/02 10:16:24;;;;;;;26.15;12.57;;;12.60;99.90;;;;;;4907756;29;20509;-87
2022/03/02 10:18:57;;;;;;;23.98;11.32;;;12.80;99.90;;;;;;4926291;29;20499;-86
2022/03/02 10:21:32;;;;;;;23.63;11.27;;;12.80;87.40;;;;;;4923457;29;20047;-86
2022/03/02 10:24:02;;;;;;;18.83;10.88;;;12.40;82.00;;;;;;4919092;29;20076;-90
2022/03/02 10:26:31;;;;;;;21.15;10.85;;;11.80;91.40;;;;;;4907674;29;20664;-89
2022/03/02 10:29:30;;;;;;;22.38;11.63;;;11.40;99.90;;;;;;4923676;29;20578;-90
2022/03/02 10:40:05;;;;;;;23.98;11.38;;;10.30;99.90;;;;;;4919210;29;20043;-89
2022/03/02 10:42:41;;;;;;;23.50;11.15;;;10.00;99.90;;;;;;4889492;29;20052;-88
2022/03/02 10:45:11;;;;;;;22.10;11.55;;;10.00;99.90;;;;;;4893695;29;20464;-89
2022/03/02 10:48:07;;;;;;;24.02;12.02;;;9.90;99.90;;;;;;4919452;29;20407;-89
2022/03/02 10:50:39;;;;;;;21.83;11.68;;;9.90;99.90;;;;;;4887838;29;20068;-89
2022/03/02 10:53:50;;;;;;;;;;;;;;;;;;;;;
2022/03/02 10:57:17;;;;;;;24.73;11.90;;;9.80;99.90;;;;;;4885280;29;20136;-89
2022/03/02 10:59:46;;;;;;;22.33;11.60;;;9.90;99.90;;;;;;4906517;29;20112;-89
2022/03/02 11:03:01;;;;;;;25.55;11.90;;;9.80;99.90;;;;;;4935888;29;20071;-90
2022/03/02 11:05:30;;;;;;;27.63;12.57;;;9.90;99.90;;;;;;4904163;29;20039;-84
2022/03/02 11:07:56;;;;;;;23.77;11.55;;;9.80;99.90;;;;;;4920939;29;20368;-87
2022/03/02 11:10:33;;;;;;;24.65;12.02;;;9.80;99.90;;;;;;4919393;29;20036;-85
2022/03/02 11:12:59;;;;;;;22.67;11.27;;;9.70;99.90;;;;;;4919739;29;20047;-85
2022/03/02 11:15:25;;;;;;;22.08;10.27;;;9.70;99.90;;;;;;4920051;29;20427;-85
2022/03/02 11:17:56;;;;;;;24.20;11.30;;;9.70;99.90;;;;;;4919966;29;20059;-86
2022/03/02 11:20:24;;;;;;;22.60;11.13;;;9.80;99.90;;;;;;4923783;29;20044;-85
2022/03/02 11:22:56;;;;;;;24.88;10.85;;;9.80;99.90;;;;;;4919225;29;20043;-86
2022/03/02 11:25:44;;;;;;;24.17;10.80;;;9.80;99.90;;;;;;4920134;29;20130;-86
2022/03/02 11:28:15;;;;;;;24.40;12.25;;;9.90;99.90;;;;;;4919836;29;20151;-86
2022/03/02 11:30:49;;;;;;;24.60;11.63;;;9.90;99.90;;;;;;4919436;29;20507;-87
2022/03/02 11:33:15;;;;;;;24.73;11.45;;;10.00;99.90;;;;;;4919194;29;20577;-86
2022/03/02 11:35:42;;;;;;;22.60;11.57;;;10.00;99.90;;;;;;4914226;29;20036;-87
2022/03/02 11:38:08;;;;;;;24.70;12.07;;;10.10;99.90;;;;;;4922761;29;20044;-85
2022/03/02 11:40:41;;;;;;;22.90;9.60;;;10.20;99.90;;;;;;4919972;29;20043;-85
2022/03/02 11:43:21;;;;;;;22.40;11.82;;;10.20;98.60;;;;;;4935246;29;20142;-87
2022/03/02 11:45:50;;;;;;;23.08;10.88;;;10.20;98.00;;;;;;4920232;29;20059;-86
2022/03/02 11:48:15;;;;;;;25.08;11.85;;;10.20;99.90;;;;;;4919751;29;20558;-86
2022/03/02 11:51:00;;;;;;;19.33;10.60;;;10.20;99.90;;;;;;4920651;29;20035;-86
2022/03/02 11:53:31;;;;;;;24.98;11.48;;;10.20;96.80;;;;;;4920415;29;20044;-85
2022/03/02 11:55:58;;;;;;;23.60;11.73;;;10.30;97.30;;;;;;4936272;29;20083;-86
2022/03/02 11:58:23;;;;;;;23.17;11.77;;;10.40;99.90;;;;;;4936238;29;20557;-85
2022/03/02 12:00:49;;;;;;;24.58;11.52;;;10.50;99.90;;;;;;4936538;29;20051;-83
2022/03/02 12:03:15;;;;;;;25.35;11.73;;;10.50;99.90;;;;;;4905395;29;20052;-83
2022/03/02 12:05:41;;;;;;;23.73;12.60;;;10.50;99.90;;;;;;4921083;29;20062;-82
2022/03/02 12:08:11;;;;;;;23.05;11.57;;;10.40;99.90;;;;;;4904634;29;20511;-82
2022/03/02 12:10:43;;;;;;;23.10;11.40;;;10.40;91.10;;;;;;4937956;29;20518;-83
2022/03/02 12:13:16;;;;;;;24.65;12.13;;;10.40;99.90;;;;;;4920191;29;20079;-82
2022/03/02 12:15:48;;;;;;;25.38;12.20;;;10.50;98.60;;;;;;4920687;29;20048;-82
2022/03/02 12:18:15;;;;;;;22.65;11.65;;;10.50;99.90;;;;;;4936196;29;20075;-82
2022/03/02 12:20:55;;;;;;;22.77;12.52;;;10.60;99.90;;;;;;4919399;29;20127;-81
2022/03/02 12:23:33;;;;;;;24.33;11.30;;;10.60;97.90;;;;;;4936198;29;20055;-82
2022/03/02 12:26:01;;;;;;;27.25;11.13;;;10.70;98.50;;;;;;4935918;29;20058;-82
2022/03/02 12:28:26;;;;;;;24.02;11.68;;;10.70;99.90;;;;;;4935683;29;20050;-81
2022/03/02 12:30:53;;;;;;;24.70;11.65;;;10.80;99.90;;;;;;4919846;29;20035;-82
2022/03/02 12:33:20;;;;;;;23.33;11.57;;;10.90;99.90;;;;;;4935881;29;20114;-81
2022/03/02 12:35:45;;;;;;;26.80;12.18;;;10.90;99.90;;;;;;4935861;29;20087;-82
2022/03/02 12:38:12;;;;;;;25.05;11.80;;;10.90;99.90;;;;;;4935738;29;20521;-82
2022/03/02 12:40:42;;;;;;;21.92;11.63;;;11.00;99.90;;;;;;4935087;29;20126;-81
2022/03/02 12:43:14;;;;;;;22.10;11.18;;;11.00;97.40;;;;;;4919435;29;20115;-82
2022/03/02 12:45:43;;;;;;;24.38;12.05;;;10.90;98.70;;;;;;4920087;29;20495;-82
2022/03/02 12:48:09;;;;;;;25.90;11.45;;;10.90;98.90;;;;;;4919653;29;20039;-81